Time;durP1;ratioP1;P1;durP2;ratioP2;P2;SDS_P1;SDS_P2;PMS_P1;PMS_P2;Temp;Humidity;BMP_temperature;BMP_pressure;BME280_temperature;BME280_humidity;BME280_pressure;Samples;Min_cycle;Max_cycle;Signal;HPM_P1;HPM_P2
2022/02/11 00:02:03;;;;;;;;;;;16.60;35.50;;;;;;8333548;28;19924;-50
2022/02/11 00:10:23;;;;;;;;;;;16.60;35.50;;;;;;8335599;28;19920;-50
2022/02/11 00:14:26;;;;;;;;;;;16.60;35.60;;;;;;8333510;28;19925;-53
2022/02/11 00:18:26;;;;;;;;;;;16.60;35.60;;;;;;8333762;28;19913;-51
2022/02/11 00:22:27;;;;;;;;;;;16.60;35.70;;;;;;8332969;28;20004;-52
2022/02/11 00:26:33;;;;;;;;;;;16.50;35.70;;;;;;8333347;28;19924;-51
2022/02/11 00:34:43;;;;;;;;;;;16.60;35.80;;;;;;8332550;28;20297;-49
2022/02/11 01:04:32;;;;;;;;;;;16.50;35.80;;;;;;8333413;28;19924;-50
2022/02/11 01:08:32;;;;;;;;;;;16.50;35.80;;;;;;8331996;28;20362;-51
2022/02/11 01:12:33;;;;;;;;;;;16.50;35.80;;;;;;8332115;28;19913;-52
2022/02/11 01:16:41;;;;;;;;;;;16.60;35.90;;;;;;8331146;28;20370;-49
2022/02/11 01:20:48;;;;;;;;;;;16.50;35.80;;;;;;8335226;28;19921;-54
2022/02/11 01:33:22;;;;;;;;;;;16.60;36.00;;;;;;8336824;28;19913;-51
2022/02/11 01:46:26;;;;;;;;;;;16.60;36.00;;;;;;8331187;28;19963;-55
2022/02/11 02:03:41;;;;;;;;;;;16.60;36.00;;;;;;8330978;28;19963;-54
2022/02/11 02:16:42;;;;;;;;;;;16.60;36.10;;;;;;8333115;28;20207;-53
2022/02/11 02:21:37;;;;;;;;;;;16.50;36.00;;;;;;8329919;28;19960;-55
2022/02/11 02:37:57;;;;;;;;;;;16.60;36.20;;;;;;8297150;28;20393;-53
2022/02/11 02:59:42;;;;;;;;;;;16.50;36.80;;;;;;8335619;28;19968;-54
2022/02/11 03:51:42;;;;;;;;;;;16.50;36.30;;;;;;8334721;28;19924;-54
2022/02/11 04:56:03;;;;;;;;;;;16.60;36.40;;;;;;8331875;28;19948;-49
2022/02/11 05:00:06;;;;;;;;;;;16.60;36.40;;;;;;8332401;28;19956;-50
2022/02/11 05:04:06;;;;;;;;;;;16.60;36.40;;;;;;8330985;28;19913;-50
2022/02/11 05:08:06;;;;;;;;;;;16.60;36.40;;;;;;8331275;28;19917;-50
2022/02/11 05:12:07;;;;;;;;;;;16.60;36.40;;;;;;8331982;28;19917;-51
2022/02/11 05:16:07;;;;;;;;;;;16.60;36.40;;;;;;8331662;28;19929;-52
2022/02/11 05:20:08;;;;;;;;;;;16.60;36.40;;;;;;8330966;28;19921;-51
2022/02/11 05:24:09;;;;;;;;;;;16.60;36.40;;;;;;8332136;28;19952;-50
2022/02/11 05:28:11;;;;;;;;;;;16.60;36.90;;;;;;8330628;28;19917;-50
2022/02/11 05:32:12;;;;;;;;;;;16.60;36.40;;;;;;8331472;28;19925;-51
2022/02/11 05:36:13;;;;;;;;;;;16.60;36.30;;;;;;8331398;28;19959;-52
2022/02/11 05:40:13;;;;;;;;;;;16.60;36.40;;;;;;8330614;28;20286;-52
2022/02/11 05:44:13;;;;;;;;;;;16.60;36.30;;;;;;8331282;28;19978;-52
2022/02/11 05:48:14;;;;;;;;;;;16.60;36.30;;;;;;8330977;28;19917;-53
2022/02/11 05:52:15;;;;;;;;;;;16.60;36.30;;;;;;8330157;28;19921;-53
2022/02/11 05:56:15;;;;;;;;;;;16.60;36.40;;;;;;8330608;28;20369;-49
2022/02/11 06:00:16;;;;;;;;;;;16.60;36.40;;;;;;8330241;28;19940;-52
2022/02/11 06:04:16;;;;;;;;;;;16.60;36.30;;;;;;8330483;28;19914;-50
2022/02/11 06:08:17;;;;;;;;;;;16.60;36.40;;;;;;8329081;28;20377;-54
2022/02/11 06:12:17;;;;;;;;;;;16.60;36.30;;;;;;8330613;28;20313;-51
2022/02/11 06:16:18;;;;;;;;;;;16.60;36.30;;;;;;8329750;28;19925;-52
2022/02/11 06:20:23;;;;;;;;;;;16.60;36.20;;;;;;8330069;28;19920;-53
2022/02/11 06:24:23;;;;;;;;;;;16.60;36.20;;;;;;8330600;28;19913;-51
2022/02/11 06:28:24;;;;;;;;;;;16.60;36.20;;;;;;8329646;28;19917;-53
2022/02/11 06:32:24;;;;;;;;;;;16.60;36.20;;;;;;8329993;28;19917;-52
2022/02/11 06:36:25;;;;;;;;;;;16.60;36.20;;;;;;8329950;28;20282;-51
2022/02/11 06:40:30;;;;;;;;;;;16.60;36.20;;;;;;8329480;28;19913;-49
2022/02/11 06:44:30;;;;;;;;;;;16.60;36.20;;;;;;8330004;28;19913;-50
2022/02/11 06:48:31;;;;;;;;;;;16.60;36.20;;;;;;8330036;28;19932;-53
2022/02/11 06:52:31;;;;;;;;;;;16.60;36.20;;;;;;8329427;28;20393;-50
2022/02/11 06:56:32;;;;;;;;;;;16.60;36.20;;;;;;8329502;28;19929;-52
2022/02/11 07:00:33;;;;;;;;;;;16.60;36.20;;;;;;8329484;28;20290;-55
2022/02/11 07:04:33;;;;;;;;;;;16.60;36.20;;;;;;8329370;28;20008;-51
2022/02/11 07:08:34;;;;;;;;;;;16.60;36.20;;;;;;8328191;28;20350;-52
2022/02/11 07:12:34;;;;;;;;;;;16.60;36.10;;;;;;8329457;28;19960;-53
2022/02/11 07:16:35;;;;;;;;;;;16.60;36.20;;;;;;8328825;28;19925;-54
2022/02/11 07:20:35;;;;;;;;;;;16.50;36.10;;;;;;8329329;28;20008;-54
2022/02/11 07:24:36;;;;;;;;;;;16.50;36.10;;;;;;8329744;28;19923;-55
2022/02/11 07:28:37;;;;;;;;;;;16.50;36.10;;;;;;8328600;28;19917;-53
2022/02/11 07:32:37;;;;;;;;;;;16.60;36.10;;;;;;8333867;28;19921;-54
2022/02/11 07:36:38;;;;;;;;;;;16.60;36.10;;;;;;8334748;28;19925;-53
2022/02/11 07:40:39;;;;;;;;;;;16.60;36.10;;;;;;8334340;28;20051;-52
2022/02/11 07:44:40;;;;;;;;;;;16.60;36.10;;;;;;8334834;28;19944;-54
2022/02/11 07:48:40;;;;;;;;;;;16.60;36.10;;;;;;8334544;28;19917;-51
2022/02/11 07:52:41;;;;;;;;;;;16.50;36.00;;;;;;8334224;28;19921;-53
2022/02/11 07:56:41;;;;;;;;;;;16.60;36.00;;;;;;8334299;28;20496;-50
2022/02/11 08:00:41;;;;;;;;;;;16.50;36.00;;;;;;8334554;28;19921;-50
2022/02/11 08:04:42;;;;;;;;;;;16.60;36.00;;;;;;8318885;28;19922;-53
2022/02/11 08:08:43;;;;;;;;;;;16.60;36.00;;;;;;8325616;28;19927;-52
2022/02/11 08:12:43;;;;;;;;;;;16.60;36.00;;;;;;8333985;28;19913;-51
2022/02/11 08:16:44;;;;;;;;;;;16.60;36.00;;;;;;8333274;28;20012;-53
2022/02/11 08:20:44;;;;;;;;;;;16.60;36.00;;;;;;8334138;28;19920;-52
2022/02/11 08:24:44;;;;;;;;;;;16.60;35.90;;;;;;8333398;28;19921;-50
2022/02/11 08:28:45;;;;;;;;;;;16.60;35.90;;;;;;8333312;28;19928;-54
2022/02/11 08:32:45;;;;;;;;;;;16.60;35.90;;;;;;8333415;28;19917;-53
2022/02/11 08:36:47;;;;;;;;;;;16.60;35.90;;;;;;8333105;28;19933;-52
2022/02/11 08:40:48;;;;;;;;;;;16.60;35.90;;;;;;8332183;28;19924;-51
2022/02/11 08:44:48;;;;;;;;;;;16.60;35.90;;;;;;8333115;28;19917;-52
2022/02/11 08:48:49;;;;;;;;;;;16.60;35.90;;;;;;8332726;28;19921;-52
2022/02/11 08:52:49;;;;;;;;;;;16.60;35.90;;;;;;8332187;28;19925;-52
2022/02/11 08:56:50;;;;;;;;;;;16.60;35.80;;;;;;8332355;28;19921;-53
2022/02/11 09:00:50;;;;;;;;;;;16.60;35.80;;;;;;8332606;28;20251;-53
2022/02/11 09:04:53;;;;;;;;;;;16.60;35.90;;;;;;8331905;28;19917;-53
2022/02/11 09:08:54;;;;;;;;;;;16.60;35.90;;;;;;8332489;28;19971;-52
2022/02/11 09:12:58;;;;;;;;;;;16.60;35.80;;;;;;8332050;28;19917;-54
2022/02/11 09:16:58;;;;;;;;;;;16.60;35.80;;;;;;8330889;28;19932;-54
2022/02/11 09:20:59;;;;;;;;;;;16.60;35.80;;;;;;8331853;28;20374;-53
2022/02/11 09:24:59;;;;;;;;;;;16.70;35.70;;;;;;8331475;28;20289;-54
2022/02/11 09:29:04;;;;;;;;;;;16.60;35.60;;;;;;8331150;28;19924;-51
2022/02/11 09:33:05;;;;;;;;;;;16.70;35.60;;;;;;8331609;28;20282;-55
2022/02/11 09:37:06;;;;;;;;;;;16.70;35.60;;;;;;8331148;28;19925;-54
2022/02/11 09:41:06;;;;;;;;;;;16.70;35.50;;;;;;8330847;28;20290;-52
2022/02/11 09:45:08;;;;;;;;;;;16.70;35.50;;;;;;8330969;28;19963;-52
2022/02/11 09:49:08;;;;;;;;;;;16.70;35.40;;;;;;8330862;28;19917;-52
2022/02/11 09:53:09;;;;;;;;;;;16.70;35.40;;;;;;8329590;28;19984;-53
2022/02/11 09:57:10;;;;;;;;;;;16.70;35.40;;;;;;8330591;28;19932;-54
2022/02/11 10:01:12;;;;;;;;;;;16.80;35.40;;;;;;8330912;28;19917;-55
2022/02/11 10:05:18;;;;;;;;;;;16.80;35.30;;;;;;8330314;28;19999;-53
2022/02/11 10:09:22;;;;;;;;;;;16.80;35.30;;;;;;8330815;28;19992;-53
2022/02/11 10:13:28;;;;;;;;;;;16.80;35.30;;;;;;8329981;28;19936;-53
2022/02/11 10:17:29;;;;;;;;;;;16.80;35.30;;;;;;8330432;28;19970;-54
2022/02/11 10:21:34;;;;;;;;;;;16.80;35.30;;;;;;8330610;28;20370;-50
2022/02/11 10:25:50;;;;;;;;;;;16.80;35.20;;;;;;8329643;28;19923;-53
2022/02/11 10:29:52;;;;;;;;;;;16.80;35.20;;;;;;8330363;28;19967;-53
2022/02/11 10:33:55;;;;;;;;;;;16.80;35.20;;;;;;8330173;28;19913;-52
2022/02/11 10:38:06;;;;;;;;;;;16.80;35.10;;;;;;8329543;28;19929;-51
2022/02/11 10:42:08;;;;;;;;;;;16.80;35.10;;;;;;8330105;28;19921;-54
2022/02/11 10:46:15;;;;;;;;;;;16.90;35.10;;;;;;8330181;28;19953;-53
2022/02/11 10:50:15;;;;;;;;;;;16.90;35.10;;;;;;8329385;28;20366;-56
2022/02/11 10:54:23;;;;;;;;;;;16.90;35.10;;;;;;8329782;28;20024;-53
2022/02/11 10:58:25;;;;;;;;;;;16.90;35.10;;;;;;8329346;28;19921;-56
2022/02/11 11:02:26;;;;;;;;;;;16.90;35.00;;;;;;8329408;28;19940;-53
2022/02/11 11:06:28;;;;;;;;;;;16.90;35.00;;;;;;8329750;28;19922;-49
2022/02/11 11:10:28;;;;;;;;;;;16.90;35.00;;;;;;8331287;28;20051;-53
2022/02/11 11:14:29;;;;;;;;;;;16.90;34.90;;;;;;8334244;28;20275;-55
2022/02/11 11:18:30;;;;;;;;;;;16.90;34.90;;;;;;8335973;28;19952;-51
2022/02/11 11:22:43;;;;;;;;;;;16.90;34.90;;;;;;8335098;28;19971;-51
2022/02/11 11:26:47;;;;;;;;;;;17.00;35.00;;;;;;8335632;28;19913;-53
2022/02/11 11:30:52;;;;;;;;;;;17.00;35.00;;;;;;8335533;28;19917;-51
2022/02/11 11:35:04;;;;;;;;;;;17.00;35.00;;;;;;8335432;28;19936;-54
2022/02/11 11:39:06;;;;;;;;;;;17.00;34.90;;;;;;8335197;28;19924;-54
2022/02/11 11:43:12;;;;;;;;;;;17.00;34.90;;;;;;8334749;28;20011;-52
2022/02/11 11:47:35;;;;;;;;;;;17.00;34.90;;;;;;8334872;28;19921;-55
2022/02/11 11:51:36;;;;;;;;;;;17.00;34.90;;;;;;8334607;28;19917;-53
2022/02/11 11:55:37;;;;;;;;;;;17.00;34.90;;;;;;8333825;28;19925;-52
2022/02/11 11:59:41;;;;;;;;;;;17.00;34.90;;;;;;8334269;28;19917;-53
2022/02/11 12:04:02;;;;;;;;;;;17.00;34.80;;;;;;8334340;28;19923;-54
2022/02/11 12:08:02;;;;;;;;;;;17.10;34.90;;;;;;8333689;28;20351;-53
2022/02/11 12:12:07;;;;;;;;;;;17.10;34.80;;;;;;8334339;28;19979;-54
2022/02/11 12:16:09;;;;;;;;;;;17.10;34.90;;;;;;8333154;28;19932;-55
2022/02/11 12:20:09;;;;;;;;;;;17.10;34.80;;;;;;8333200;28;19917;-55
2022/02/11 12:28:30;;;;;;;;;;;17.10;34.80;;;;;;8334923;28;19963;-53
2022/02/11 12:32:32;;;;;;;;;;;17.10;34.80;;;;;;8333866;28;19913;-53
2022/02/11 12:36:32;;;;;;;;;;;17.10;34.80;;;;;;8333320;28;20024;-51
2022/02/11 12:40:34;;;;;;;;;;;17.10;34.70;;;;;;8332686;28;19917;-55
2022/02/11 12:44:35;;;;;;;;;;;17.10;34.70;;;;;;8333111;28;19960;-54
2022/02/11 12:48:38;;;;;;;;;;;17.10;34.70;;;;;;8332953;28;20358;-51
2022/02/11 12:52:39;;;;;;;;;;;17.10;34.70;;;;;;8332606;28;19928;-54
2022/02/11 12:56:40;;;;;;;;;;;17.10;34.70;;;;;;8331327;28;19931;-51
2022/02/11 13:00:41;;;;;;;;;;;17.10;34.60;;;;;;8332200;28;19965;-51
2022/02/11 13:04:42;;;;;;;;;;;17.20;34.70;;;;;;8331862;28;19921;-54
2022/02/11 13:08:43;;;;;;;;;;;17.20;34.70;;;;;;8332392;28;19921;-53
2022/02/11 13:12:44;;;;;;;;;;;17.20;34.60;;;;;;8332441;28;19913;-55
2022/02/11 13:16:45;;;;;;;;;;;17.20;34.70;;;;;;8331285;28;20460;-53
2022/02/11 13:20:48;;;;;;;;;;;17.20;34.60;;;;;;8331922;28;19917;-53
2022/02/11 13:24:48;;;;;;;;;;;17.20;34.60;;;;;;8331655;28;19917;-54
2022/02/11 13:28:50;;;;;;;;;;;17.10;34.60;;;;;;8331093;28;19963;-54
2022/02/11 13:32:52;;;;;;;;;;;17.20;34.70;;;;;;8328480;28;19971;-53
2022/02/11 13:37:02;;;;;;;;;;;17.10;34.60;;;;;;8325532;28;20435;-55
2022/02/11 13:41:08;;;;;;;;;;;17.20;34.60;;;;;;8323427;28;19921;-52
2022/02/11 13:45:12;;;;;;;;;;;17.20;34.60;;;;;;8332630;28;20358;-52
2022/02/11 13:49:13;;;;;;;;;;;17.20;34.60;;;;;;8329996;28;19921;-54
2022/02/11 13:53:25;;;;;;;;;;;17.20;34.60;;;;;;8330553;28;20019;-53
2022/02/11 13:57:26;;;;;;;;;;;17.20;34.60;;;;;;8330800;28;20460;-54
2022/02/11 14:01:27;;;;;;;;;;;17.20;34.50;;;;;;8329946;28;19953;-51
2022/02/11 14:05:41;;;;;;;;;;;17.20;34.50;;;;;;8328856;28;21273;-51
2022/02/11 14:09:42;;;;;;;;;;;17.20;34.50;;;;;;8329953;28;19953;-51
2022/02/11 14:13:42;;;;;;;;;;;17.20;34.40;;;;;;8329603;28;20374;-53
2022/02/11 14:17:43;;;;;;;;;;;17.20;34.50;;;;;;8330683;28;19963;-48
2022/02/11 14:21:44;;;;;;;;;;;17.30;34.50;;;;;;8330271;28;19917;-52
2022/02/11 14:25:46;;;;;;;;;;;17.20;34.40;;;;;;8328311;28;20366;-53
2022/02/11 14:29:47;;;;;;;;;;;17.30;34.50;;;;;;8329787;28;19975;-53
2022/02/11 14:33:47;;;;;;;;;;;17.20;34.40;;;;;;8329990;28;20315;-52
2022/02/11 14:37:47;;;;;;;;;;;17.30;34.40;;;;;;8329466;28;19932;-54
2022/02/11 14:41:49;;;;;;;;;;;17.30;34.40;;;;;;8335666;28;19960;-53
2022/02/11 14:45:51;;;;;;;;;;;17.30;34.40;;;;;;8336362;28;19917;-51
2022/02/11 14:49:51;;;;;;;;;;;17.20;34.30;;;;;;8335138;28;19917;-53
2022/02/11 14:53:51;;;;;;;;;;;17.20;34.30;;;;;;8334894;28;19944;-54
2022/02/11 14:57:52;;;;;;;;;;;17.20;34.30;;;;;;8336134;28;19928;-53
2022/02/11 15:01:54;;;;;;;;;;;17.20;34.30;;;;;;8332444;28;19921;-52
2022/02/11 15:05:54;;;;;;;;;;;17.20;34.30;;;;;;8334811;28;19921;-54
2022/02/11 15:09:55;;;;;;;;;;;17.30;34.40;;;;;;8331148;28;19979;-55
2022/02/11 15:13:55;;;;;;;;;;;17.20;34.30;;;;;;8332981;28;20292;-53
2022/02/11 15:17:56;;;;;;;;;;;17.20;34.30;;;;;;8335717;28;19924;-52
2022/02/11 15:21:57;;;;;;;;;;;17.20;34.30;;;;;;8335368;28;19917;-52
2022/02/11 15:26:02;;;;;;;;;;;17.30;34.30;;;;;;8334688;28;19917;-53
2022/02/11 15:30:02;;;;;;;;;;;17.20;34.30;;;;;;8335130;28;19924;-55
2022/02/11 15:34:04;;;;;;;;;;;17.30;34.30;;;;;;8334822;28;20353;-52
2022/02/11 15:38:05;;;;;;;;;;;17.30;34.30;;;;;;8334217;28;19921;-53
2022/02/11 15:42:06;;;;;;;;;;;17.30;34.30;;;;;;8334771;28;20354;-54
2022/02/11 15:46:07;;;;;;;;;;;17.30;34.30;;;;;;8334433;28;19937;-51
2022/02/11 15:50:08;;;;;;;;;;;17.30;34.30;;;;;;8329065;28;19975;-52
2022/02/11 15:54:08;;;;;;;;;;;17.30;34.40;;;;;;8333736;28;20344;-52
2022/02/11 15:58:09;;;;;;;;;;;17.20;34.30;;;;;;8333341;28;20012;-52
2022/02/11 16:02:09;;;;;;;;;;;17.20;34.30;;;;;;8333706;28;19917;-53
2022/02/11 16:06:10;;;;;;;;;;;17.20;34.40;;;;;;8328434;28;19924;-55
2022/02/11 16:10:10;;;;;;;;;;;17.20;34.10;;;;;;8330490;28;19960;-54
2022/02/11 16:14:15;;;;;;;;;;;17.20;34.20;;;;;;8331056;28;19953;-52
2022/02/11 16:18:16;;;;;;;;;;;17.20;34.20;;;;;;8329023;28;19932;-54
2022/02/11 16:22:17;;;;;;;;;;;17.20;34.30;;;;;;8331213;28;19924;-53
2022/02/11 16:26:17;;;;;;;;;;;17.20;34.30;;;;;;8332197;28;19924;-54
2022/02/11 16:30:18;;;;;;;;;;;17.20;34.40;;;;;;8327567;28;19925;-52
2022/02/11 16:34:19;;;;;;;;;;;17.20;34.40;;;;;;8328247;28;19917;-53
2022/02/11 16:38:19;;;;;;;;;;;17.20;34.40;;;;;;8332724;28;19927;-51
2022/02/11 16:42:20;;;;;;;;;;;17.20;34.40;;;;;;8332814;28;19924;-55
2022/02/11 16:46:20;;;;;;;;;;;17.20;34.30;;;;;;8332129;28;19913;-50
2022/02/11 16:50:21;;;;;;;;;;;17.20;34.30;;;;;;8320132;28;19917;-51
2022/02/11 16:54:21;;;;;;;;;;;17.20;34.30;;;;;;8332504;28;20390;-53
2022/02/11 16:58:22;;;;;;;;;;;17.20;34.30;;;;;;8331915;28;19929;-53
2022/02/11 17:02:22;;;;;;;;;;;17.20;34.30;;;;;;8332024;28;20289;-50
2022/02/11 17:06:23;;;;;;;;;;;17.20;34.30;;;;;;8320434;28;19925;-50
2022/02/11 17:10:23;;;;;;;;;;;17.10;34.20;;;;;;8311001;28;19917;-52
2022/02/11 17:14:24;;;;;;;;;;;17.20;34.30;;;;;;8331918;28;19919;-53
2022/02/11 17:18:24;;;;;;;;;;;17.10;34.30;;;;;;8331018;28;19925;-53
2022/02/11 17:22:25;;;;;;;;;;;17.20;34.20;;;;;;8331182;28;19913;-53
2022/02/11 17:26:30;;;;;;;;;;;17.10;34.20;;;;;;8331486;28;19917;-52
2022/02/11 17:30:33;;;;;;;;;;;17.10;34.20;;;;;;8329337;28;20370;-54
2022/02/11 17:34:33;;;;;;;;;;;17.10;34.10;;;;;;8329825;28;19967;-56
2022/02/11 17:38:33;;;;;;;;;;;17.10;34.10;;;;;;8329349;28;20292;-53
2022/02/11 17:42:34;;;;;;;;;;;17.10;34.10;;;;;;8331267;28;19924;-55
2022/02/11 17:46:35;;;;;;;;;;;17.10;34.10;;;;;;8330461;28;19917;-55
2022/02/11 17:50:35;;;;;;;;;;;17.10;34.10;;;;;;8329860;28;20373;-54
2022/02/11 17:54:36;;;;;;;;;;;17.10;34.10;;;;;;8331037;28;19921;-56
2022/02/11 17:58:36;;;;;;;;;;;17.10;34.10;;;;;;8330294;28;19921;-53
2022/02/11 18:02:37;;;;;;;;;;;17.10;34.10;;;;;;8326038;28;20004;-56
2022/02/11 18:06:37;;;;;;;;;;;17.10;34.10;;;;;;8330378;28;19918;-53
2022/02/11 18:10:38;;;;;;;;;;;17.10;34.10;;;;;;8330030;28;19997;-53
2022/02/11 18:14:38;;;;;;;;;;;17.10;34.00;;;;;;8329703;28;19967;-55
2022/02/11 18:18:39;;;;;;;;;;;17.10;34.00;;;;;;8330137;28;19917;-52
2022/02/11 18:22:41;;;;;;;;;;;17.10;34.00;;;;;;8329674;28;19968;-53
2022/02/11 18:26:43;;;;;;;;;;;17.10;34.00;;;;;;8330024;28;19925;-55
2022/02/11 18:30:44;;;;;;;;;;;17.00;34.00;;;;;;8329993;28;20035;-54
2022/02/11 18:34:44;;;;;;;;;;;17.10;34.10;;;;;;8329742;28;19924;-52
2022/02/11 18:38:45;;;;;;;;;;;17.10;34.10;;;;;;8330116;28;19967;-54
2022/02/11 18:42:45;;;;;;;;;;;17.10;34.20;;;;;;8329902;28;19924;-50
2022/02/11 18:46:46;;;;;;;;;;;17.10;34.20;;;;;;8329306;28;20021;-54
2022/02/11 18:50:47;;;;;;;;;;;17.00;34.20;;;;;;8329585;28;20015;-53
2022/02/11 18:54:49;;;;;;;;;;;17.10;34.20;;;;;;8329859;28;19936;-52
2022/02/11 18:58:49;;;;;;;;;;;17.10;34.10;;;;;;8328771;28;19948;-53
2022/02/11 19:02:50;;;;;;;;;;;17.10;34.10;;;;;;8329663;28;19922;-56
2022/02/11 19:06:50;;;;;;;;;;;17.00;34.10;;;;;;8329438;28;19959;-54
2022/02/11 19:10:51;;;;;;;;;;;17.00;34.00;;;;;;8329009;28;20004;-53
2022/02/11 19:14:52;;;;;;;;;;;17.10;34.00;;;;;;8329626;28;19960;-52
2022/02/11 19:18:53;;;;;;;;;;;17.10;34.10;;;;;;8329584;28;20366;-52
2022/02/11 19:22:54;;;;;;;;;;;17.00;34.00;;;;;;8328782;28;19928;-55
2022/02/11 19:26:54;;;;;;;;;;;17.00;34.00;;;;;;8333212;28;19913;-54
2022/02/11 19:30:55;;;;;;;;;;;17.00;34.00;;;;;;8335267;28;19921;-54
2022/02/11 19:34:55;;;;;;;;;;;17.00;34.00;;;;;;8333320;28;20000;-54
2022/02/11 19:38:56;;;;;;;;;;;17.00;34.00;;;;;;8335136;28;19917;-53
2022/02/11 19:42:58;;;;;;;;;;;17.00;34.00;;;;;;8334684;28;19920;-53
2022/02/11 19:46:58;;;;;;;;;;;17.00;34.00;;;;;;8334118;28;19963;-53
2022/02/11 19:50:59;;;;;;;;;;;17.00;34.00;;;;;;8334507;28;19923;-55
2022/02/11 19:54:59;;;;;;;;;;;17.00;34.00;;;;;;8334554;28;20006;-52
2022/02/11 19:59:00;;;;;;;;;;;17.00;33.90;;;;;;8333674;28;19917;-53
2022/02/11 20:03:00;;;;;;;;;;;17.00;33.90;;;;;;8334232;28;20430;-52
2022/02/11 20:07:01;;;;;;;;;;;17.00;34.00;;;;;;8329787;28;19913;-51
2022/02/11 20:11:01;;;;;;;;;;;17.00;33.90;;;;;;8304434;28;19916;-50
2022/02/11 20:15:03;;;;;;;;;;;17.00;33.90;;;;;;8333704;28;19928;-51
2022/02/11 20:19:04;;;;;;;;;;;17.00;33.90;;;;;;8333560;28;19917;-51
2022/02/11 20:23:04;;;;;;;;;;;17.00;34.00;;;;;;8333000;28;19917;-54
2022/02/11 20:27:06;;;;;;;;;;;17.00;34.00;;;;;;8333384;28;19944;-50
2022/02/11 20:31:11;;;;;;;;;;;16.90;34.50;;;;;;8333305;28;19921;-49
2022/02/11 20:35:11;;;;;;;;;;;17.00;33.90;;;;;;8333015;28;20440;-55
2022/02/11 20:39:12;;;;;;;;;;;16.90;33.90;;;;;;8332460;28;19917;-53
2022/02/11 20:43:12;;;;;;;;;;;16.90;33.90;;;;;;8332513;28;19916;-50
2022/02/11 20:47:13;;;;;;;;;;;17.00;33.90;;;;;;8332757;28;19918;-50
2022/02/11 20:51:16;;;;;;;;;;;16.90;33.90;;;;;;8332870;28;19921;-54
2022/02/11 20:55:17;;;;;;;;;;;16.90;33.80;;;;;;8332290;28;19925;-52
2022/02/11 20:59:18;;;;;;;;;;;16.90;33.80;;;;;;8332378;28;19940;-50
2022/02/11 21:03:19;;;;;;;;;;;16.90;33.80;;;;;;8332520;28;20406;-53
2022/02/11 21:07:19;;;;;;;;;;;16.90;33.90;;;;;;8331895;28;19918;-54
2022/02/11 21:11:20;;;;;;;;;;;16.90;33.80;;;;;;8331863;28;19917;-51
2022/02/11 21:15:20;;;;;;;;;;;16.90;33.80;;;;;;8331982;28;19928;-53
2022/02/11 21:19:21;;;;;;;;;;;16.90;33.80;;;;;;8331208;28;19917;-53
2022/02/11 21:23:21;;;;;;;;;;;16.90;33.80;;;;;;8331619;28;19947;-52
2022/02/11 21:27:23;;;;;;;;;;;16.90;34.00;;;;;;8331532;28;19963;-54
2022/02/11 21:31:24;;;;;;;;;;;16.90;33.90;;;;;;8330998;28;20670;-55
2022/02/11 21:35:24;;;;;;;;;;;16.90;33.80;;;;;;8331365;28;19921;-53
2022/02/11 21:39:25;;;;;;;;;;;16.90;33.80;;;;;;8331111;28;20008;-53
2022/02/11 21:43:25;;;;;;;;;;;16.90;33.80;;;;;;8330554;28;19921;-55
2022/02/11 21:47:26;;;;;;;;;;;16.80;33.70;;;;;;8330942;28;19940;-54
2022/02/11 21:51:26;;;;;;;;;;;16.80;33.70;;;;;;8329941;28;19914;-54
2022/02/11 21:55:27;;;;;;;;;;;16.80;33.70;;;;;;8330530;28;20394;-54
2022/02/11 21:59:27;;;;;;;;;;;16.80;33.80;;;;;;8330864;28;19917;-54
2022/02/11 22:03:28;;;;;;;;;;;16.80;33.80;;;;;;8330574;28;19999;-53
2022/02/11 22:07:28;;;;;;;;;;;16.80;33.70;;;;;;8330026;28;19925;-52
2022/02/11 22:11:29;;;;;;;;;;;16.80;33.70;;;;;;8330499;28;19913;-55
2022/02/11 22:15:29;;;;;;;;;;;16.80;33.80;;;;;;8330520;28;19979;-53
2022/02/11 22:19:30;;;;;;;;;;;16.80;33.80;;;;;;8329875;28;19959;-55
2022/02/11 22:23:30;;;;;;;;;;;16.70;34.30;;;;;;8330499;28;20386;-51
2022/02/11 22:27:31;;;;;;;;;;;16.70;33.80;;;;;;8330372;28;19913;-52
2022/02/11 22:31:32;;;;;;;;;;;16.70;33.70;;;;;;8329626;28;19948;-54
2022/02/11 22:35:32;;;;;;;;;;;16.70;33.70;;;;;;8330061;28;20485;-52
2022/02/11 22:39:33;;;;;;;;;;;16.70;33.70;;;;;;8329902;28;19978;-52
2022/02/11 22:43:33;;;;;;;;;;;16.70;33.70;;;;;;8329435;28;19948;-54
2022/02/11 22:47:34;;;;;;;;;;;16.70;33.70;;;;;;8329817;28;19917;-50
2022/02/11 22:55:54;;;;;;;;;;;16.70;33.70;;;;;;8330168;28;20000;-53
2022/02/11 22:59:55;;;;;;;;;;;16.70;33.70;;;;;;8330218;28;19956;-52
2022/02/11 23:03:55;;;;;;;;;;;16.70;33.70;;;;;;8335449;28;20289;-51
2022/02/11 23:07:56;;;;;;;;;;;16.70;33.70;;;;;;8334722;28;19924;-54
2022/02/11 23:11:56;;;;;;;;;;;16.60;33.60;;;;;;8336216;28;19917;-52
2022/02/11 23:15:57;;;;;;;;;;;16.60;33.70;;;;;;8335697;28;20012;-50
2022/02/11 23:19:57;;;;;;;;;;;16.60;33.70;;;;;;8335085;28;19987;-51
2022/02/11 23:23:58;;;;;;;;;;;16.60;33.70;;;;;;8335341;28;20223;-50
2022/02/11 23:27:58;;;;;;;;;;;16.60;33.70;;;;;;8335322;28;19917;-53
2022/02/11 23:31:58;;;;;;;;;;;16.60;34.20;;;;;;8334723;28;20274;-51
2022/02/11 23:35:59;;;;;;;;;;;16.60;33.60;;;;;;8335496;28;19921;-51
2022/02/11 23:40:03;;;;;;;;;;;16.60;33.60;;;;;;8335339;28;20428;-51
2022/02/11 23:44:05;;;;;;;;;;;16.50;33.60;;;;;;8334321;28;19921;-53
2022/02/11 23:48:06;;;;;;;;;;;16.50;33.60;;;;;;8334860;28;20408;-54
2022/02/11 23:52:06;;;;;;;;;;;16.50;33.60;;;;;;8334621;28;19943;-51
2022/02/11 23:56:07;;;;;;;;;;;16.60;33.60;;;;;;8334073;28;19925;-50
